Time;durP1;ratioP1;P1;durP2;ratioP2;P2;SDS_P1;SDS_P2;PMS_P1;PMS_P2;Temp;Humidity;BMP_temperature;BMP_pressure;BME280_temperature;BME280_humidity;BME280_pressure;Samples;Min_cycle;Max_cycle;Signal;HPM_P1;HPM_P2
2022/10/31 00:00:12;;;;;;;23.38;17.80;;;12.60;99.90;;;;;;6258317;22;20562;-88
2022/10/31 00:02:39;;;;;;;25.27;17.00;;;12.70;99.90;;;;;;6259641;22;20174;-88
2022/10/31 00:05:08;;;;;;;27.45;17.83;;;12.70;99.90;;;;;;6260698;22;20193;-89
2022/10/31 00:07:39;;;;;;;25.85;16.75;;;12.80;99.90;;;;;;6258519;22;20190;-88
2022/10/31 00:10:08;;;;;;;23.02;16.25;;;12.80;99.90;;;;;;6258191;22;20175;-87
2022/10/31 00:12:36;;;;;;;29.88;19.08;;;12.70;99.90;;;;;;6258743;22;20188;-88
2022/10/31 00:15:04;;;;;;;25.42;17.42;;;12.70;99.90;;;;;;6261282;22;20470;-87
2022/10/31 00:17:34;;;;;;;25.17;17.27;;;12.70;99.90;;;;;;6259433;22;20171;-87
2022/10/31 00:20:01;;;;;;;25.75;17.13;;;12.70;99.90;;;;;;6284265;22;20253;-88
2022/10/31 00:22:28;;;;;;;20.75;16.75;;;12.70;99.90;;;;;;6259339;22;20233;-87
2022/10/31 00:24:56;;;;;;;24.25;17.08;;;12.70;99.90;;;;;;6259758;22;20363;-87
2022/10/31 00:28:13;;;;;;;27.00;15.82;;;12.70;99.90;;;;;;6287594;22;20204;-86
2022/10/31 00:31:19;;;;;;;23.60;17.25;;;12.60;99.90;;;;;;6287746;22;20182;-86
2022/10/31 00:33:47;;;;;;;26.75;16.02;;;12.50;99.90;;;;;;6260916;22;20174;-87
2022/10/31 00:36:37;;;;;;;30.13;19.80;;;12.40;99.90;;;;;;6261125;22;20459;-86
2022/10/31 00:39:04;;;;;;;20.10;15.98;;;12.50;99.90;;;;;;6259507;22;20182;-89
2022/10/31 00:41:31;;;;;;;21.48;17.73;;;12.50;99.90;;;;;;6263121;22;20422;-87
2022/10/31 00:43:59;;;;;;;23.90;16.08;;;12.60;99.90;;;;;;6259679;22;20225;-87
2022/10/31 00:46:40;;;;;;;27.63;17.70;;;12.50;99.90;;;;;;6287760;22;20201;-86
2022/10/31 00:49:08;;;;;;;21.30;16.52;;;12.40;99.90;;;;;;6286896;22;20186;-86
2022/10/31 00:51:35;;;;;;;26.27;16.23;;;12.60;99.90;;;;;;6259578;22;20401;-87
2022/10/31 00:58:19;;;;;;;23.73;16.45;;;12.60;99.90;;;;;;6287815;22;20362;-86
2022/10/31 01:01:18;;;;;;;18.25;15.77;;;12.60;99.90;;;;;;6260453;22;20267;-86
2022/10/31 01:03:50;;;;;;;22.02;16.17;;;12.50;99.90;;;;;;6288278;22;20360;-87
2022/10/31 01:06:16;;;;;;;25.52;15.45;;;12.40;99.90;;;;;;6280742;22;20187;-88
2022/10/31 01:08:46;;;;;;;21.95;16.70;;;12.20;99.90;;;;;;6252019;22;20171;-87
2022/10/31 01:11:20;;;;;;;22.33;15.30;;;12.30;99.90;;;;;;6230199;22;20381;-87
2022/10/31 01:13:50;;;;;;;27.55;17.10;;;12.20;99.90;;;;;;6252895;22;20382;-84
2022/10/31 01:16:21;;;;;;;24.83;18.33;;;12.20;99.90;;;;;;6280634;22;20213;-84
2022/10/31 01:18:51;;;;;;;27.33;17.65;;;12.30;99.90;;;;;;6280337;22;20193;-84
2022/10/31 01:21:26;;;;;;;27.55;17.45;;;12.30;99.90;;;;;;6253174;22;20518;-85
2022/10/31 01:23:55;;;;;;;23.23;16.98;;;12.30;99.90;;;;;;6274014;22;20470;-85
2022/10/31 01:26:27;;;;;;;20.77;17.42;;;12.20;99.90;;;;;;6253566;22;20410;-85
2022/10/31 01:29:00;;;;;;;20.63;17.63;;;12.20;99.90;;;;;;6254757;22;20415;-85
2022/10/31 01:31:34;;;;;;;24.88;17.23;;;12.30;99.90;;;;;;6255658;22;20186;-86
2022/10/31 01:34:02;;;;;;;21.75;16.77;;;12.20;99.90;;;;;;6256453;22;20218;-89
2022/10/31 01:36:33;;;;;;;18.95;15.73;;;12.20;99.90;;;;;;6256824;22;20197;-86
2022/10/31 01:39:09;;;;;;;23.25;16.75;;;12.30;99.90;;;;;;6282422;22;20213;-85
2022/10/31 01:41:39;;;;;;;24.73;17.20;;;12.20;99.90;;;;;;6282357;22;20191;-86
2022/10/31 01:44:15;;;;;;;21.42;16.98;;;12.20;99.90;;;;;;6282209;22;20182;-86
2022/10/31 01:46:48;;;;;;;25.95;17.58;;;12.10;99.90;;;;;;6282436;22;20178;-85
2022/10/31 01:49:31;;;;;;;22.67;16.23;;;12.00;99.90;;;;;;6282449;22;20227;-86
2022/10/31 01:52:05;;;;;;;19.55;15.93;;;11.90;99.90;;;;;;6256355;22;20185;-85
2022/10/31 01:54:38;;;;;;;33.60;18.00;;;11.90;99.90;;;;;;6283410;22;20379;-84
2022/10/31 01:57:08;;;;;;;29.85;17.40;;;12.00;99.90;;;;;;6259470;22;20186;-86
2022/10/31 01:59:39;;;;;;;22.88;17.98;;;12.00;99.90;;;;;;6254704;22;20185;-86
2022/10/31 02:02:07;;;;;;;24.33;17.23;;;12.00;99.90;;;;;;6257997;22;20213;-86
2022/10/31 02:04:36;;;;;;;24.50;17.48;;;11.90;99.90;;;;;;6233459;22;20242;-88
2022/10/31 02:07:43;;;;;;;24.02;16.38;;;11.80;99.90;;;;;;6287235;22;20171;-87
2022/10/31 02:10:10;;;;;;;27.20;17.35;;;11.80;99.90;;;;;;6259261;22;20190;-88
2022/10/31 02:12:40;;;;;;;25.73;17.75;;;11.90;99.90;;;;;;6273919;22;20203;-90
2022/10/31 02:15:08;;;;;;;31.95;16.13;;;12.00;99.90;;;;;;6246328;22;20201;-89
2022/10/31 02:17:37;;;;;;;21.50;18.17;;;11.90;99.90;;;;;;6263098;22;20183;-87
2022/10/31 02:20:17;;;;;;;21.52;17.00;;;11.90;99.90;;;;;;6254959;22;20258;-86
2022/10/31 02:23:09;;;;;;;32.97;18.52;;;11.90;99.90;;;;;;6280587;22;20167;-86
2022/10/31 02:26:03;;;;;;;23.95;18.15;;;11.90;99.90;;;;;;6280714;22;20193;-89
2022/10/31 02:28:42;;;;;;;25.55;16.45;;;11.80;99.90;;;;;;6256425;22;20159;-86
2022/10/31 02:31:39;;;;;;;28.02;17.58;;;11.80;99.90;;;;;;6283751;22;20186;-85
2022/10/31 02:34:46;;;;;;;32.22;18.58;;;11.80;99.90;;;;;;6288261;22;20638;-83
2022/10/31 02:37:55;;;;;;;27.27;18.00;;;11.70;99.90;;;;;;6290762;22;20170;-83
2022/10/31 02:40:41;;;;;;;26.50;17.80;;;11.70;99.90;;;;;;6292750;22;20532;-85
2022/10/31 02:43:24;;;;;;;33.80;17.15;;;11.70;99.90;;;;;;6253342;22;20199;-84
2022/10/31 02:46:08;;;;;;;31.73;18.67;;;11.70;99.90;;;;;;6286875;22;20193;-86
2022/10/31 02:49:13;;;;;;;24.60;17.20;;;11.70;99.90;;;;;;6268190;22;20178;-84
2022/10/31 02:51:50;;;;;;;35.03;17.15;;;11.60;99.90;;;;;;6268692;22;20510;-85
2022/10/31 02:54:32;;;;;;;22.70;17.13;;;11.70;99.90;;;;;;6261555;22;20170;-83
2022/10/31 02:57:07;;;;;;;24.52;17.48;;;11.60;99.90;;;;;;6290043;22;20269;-86
2022/10/31 03:03:44;;;;;;;24.65;18.65;;;11.70;99.90;;;;;;6294118;22;20233;-86
2022/10/31 03:06:53;;;;;;;22.98;16.42;;;11.60;99.90;;;;;;6297634;22;20161;-86
2022/10/31 03:09:51;;;;;;;21.90;15.60;;;11.60;99.90;;;;;;6258009;22;20194;-88
2022/10/31 03:12:41;;;;;;;24.80;16.25;;;11.60;99.90;;;;;;6257782;22;20524;-86
2022/10/31 03:15:30;;;;;;;28.20;18.15;;;11.60;99.90;;;;;;6273014;22;20182;-86
2022/10/31 03:18:09;;;;;;;29.27;16.05;;;11.40;99.90;;;;;;6285236;22;20450;-83
2022/10/31 03:20:41;;;;;;;22.15;16.00;;;11.10;99.90;;;;;;6280176;22;20464;-83
2022/10/31 03:23:14;;;;;;;23.75;18.08;;;11.10;99.90;;;;;;6228778;22;20183;-85
2022/10/31 03:25:48;;;;;;;24.38;16.15;;;11.30;99.90;;;;;;6253996;22;20242;-84
2022/10/31 03:28:23;;;;;;;20.08;17.50;;;11.40;99.90;;;;;;6280081;22;20183;-83
2022/10/31 03:30:53;;;;;;;19.88;15.90;;;11.50;99.90;;;;;;6253400;22;20187;-85
2022/10/31 03:33:27;;;;;;;25.63;17.20;;;11.50;99.90;;;;;;6279893;22;20183;-84
2022/10/31 03:35:57;;;;;;;23.10;14.80;;;11.50;99.90;;;;;;6253768;22;20173;-85
2022/10/31 03:38:29;;;;;;;19.42;16.00;;;11.50;99.90;;;;;;6253491;22;20182;-85
2022/10/31 03:40:59;;;;;;;22.70;16.75;;;11.40;99.90;;;;;;6259759;22;20533;-87
2022/10/31 03:43:34;;;;;;;22.85;15.32;;;11.50;99.90;;;;;;6259005;22;20194;-86
2022/10/31 03:46:01;;;;;;;20.02;15.55;;;11.40;99.90;;;;;;6282562;22;20171;-85
2022/10/31 03:48:30;;;;;;;26.70;16.83;;;11.40;99.90;;;;;;6255480;22;20191;-88
2022/10/31 03:51:31;;;;;;;24.13;17.00;;;11.30;99.90;;;;;;6240967;22;20240;-87
2022/10/31 03:54:14;;;;;;;19.13;15.05;;;11.30;99.90;;;;;;6282422;22;20223;-87
2022/10/31 03:57:04;;;;;;;25.45;17.17;;;11.30;99.90;;;;;;6282653;22;20227;-86
2022/10/31 03:59:49;;;;;;;25.60;15.70;;;11.30;99.90;;;;;;6254999;22;20178;-86
2022/10/31 04:02:21;;;;;;;23.73;15.73;;;11.10;99.90;;;;;;6252714;22;20203;-87
2022/10/31 04:04:50;;;;;;;22.35;17.15;;;11.20;99.90;;;;;;6255061;22;20217;-85
2022/10/31 04:07:20;;;;;;;19.35;15.23;;;11.10;99.90;;;;;;6255865;22;20167;-86
2022/10/31 04:09:49;;;;;;;20.40;15.77;;;11.00;99.90;;;;;;6281009;22;20518;-86
2022/10/31 04:12:17;;;;;;;23.67;16.50;;;11.10;99.90;;;;;;6281918;22;20190;-86
2022/10/31 04:14:47;;;;;;;24.83;17.52;;;11.10;99.90;;;;;;6253814;22;20225;-85
2022/10/31 04:17:21;;;;;;;22.25;16.40;;;10.90;99.90;;;;;;6281779;22;20232;-86
2022/10/31 04:19:48;;;;;;;18.77;15.90;;;10.90;99.90;;;;;;6256674;22;20232;-83
2022/10/31 04:22:15;;;;;;;19.90;16.98;;;11.00;99.90;;;;;;6285487;22;20203;-88
2022/10/31 04:24:43;;;;;;;22.15;16.60;;;11.10;99.90;;;;;;6246018;22;20230;-89
2022/10/31 04:27:11;;;;;;;24.85;15.68;;;11.10;99.90;;;;;;6245909;22;20193;-88
2022/10/31 04:29:38;;;;;;;21.92;16.63;;;11.10;99.90;;;;;;6270275;22;20234;-88
2022/10/31 04:32:11;;;;;;;21.42;17.05;;;10.90;99.90;;;;;;6295343;22;20179;-85
2022/10/31 04:34:39;;;;;;;23.33;16.52;;;10.70;99.90;;;;;;6254730;22;20183;-84
2022/10/31 04:37:06;;;;;;;26.38;17.00;;;10.70;99.90;;;;;;6281469;22;20479;-85
2022/10/31 04:39:34;;;;;;;25.70;17.25;;;10.80;99.90;;;;;;6228570;22;20217;-86
2022/10/31 04:42:01;;;;;;;23.70;18.27;;;10.80;99.90;;;;;;6281359;22;20467;-86
2022/10/31 04:44:29;;;;;;;25.55;17.20;;;10.80;99.90;;;;;;6281765;22;20189;-88
2022/10/31 04:46:56;;;;;;;21.88;17.35;;;10.70;99.90;;;;;;6281616;22;20179;-84
2022/10/31 04:49:25;;;;;;;21.75;17.73;;;10.60;99.90;;;;;;6254843;22;20217;-85
2022/10/31 04:51:52;;;;;;;22.02;16.73;;;10.60;99.90;;;;;;6280552;22;20175;-84
2022/10/31 04:54:19;;;;;;;20.63;18.02;;;10.70;99.90;;;;;;6281294;22;20479;-84
2022/10/31 04:56:46;;;;;;;25.60;17.40;;;10.70;99.90;;;;;;6253997;22;20402;-84
2022/10/31 04:59:16;;;;;;;29.20;17.05;;;10.80;99.90;;;;;;6282508;22;20436;-85
2022/10/31 05:01:43;;;;;;;25.02;18.02;;;10.70;99.90;;;;;;6256592;22;20202;-85
2022/10/31 05:04:10;;;;;;;21.77;18.27;;;10.70;99.90;;;;;;6284335;22;20194;-85
2022/10/31 05:06:37;;;;;;;29.45;18.38;;;10.70;99.90;;;;;;6231002;22;20267;-85
2022/10/31 05:09:11;;;;;;;31.63;16.80;;;10.80;99.90;;;;;;6281871;22;20183;-86
2022/10/31 05:11:39;;;;;;;19.98;15.52;;;10.80;99.90;;;;;;6253073;22;20174;-86
2022/10/31 05:14:06;;;;;;;28.20;17.27;;;10.90;99.90;;;;;;6253431;22;20178;-85
2022/10/31 05:16:33;;;;;;;21.50;17.20;;;10.80;99.90;;;;;;6281282;22;20236;-87
2022/10/31 05:19:01;;;;;;;22.02;15.13;;;10.70;99.90;;;;;;6255508;22;20378;-86
2022/10/31 05:21:28;;;;;;;23.40;17.73;;;10.70;99.90;;;;;;6257620;22;20225;-86
2022/10/31 05:23:56;;;;;;;18.50;15.38;;;10.70;99.90;;;;;;6280895;22;20174;-87
2022/10/31 05:26:24;;;;;;;23.92;15.65;;;10.50;99.90;;;;;;6282691;22;20210;-86
2022/10/31 05:28:53;;;;;;;27.05;17.65;;;10.50;99.90;;;;;;6284096;22;20343;-87
2022/10/31 05:31:26;;;;;;;28.15;17.67;;;10.60;99.90;;;;;;6282926;22;20239;-84
2022/10/31 05:33:53;;;;;;;22.60;15.95;;;10.60;99.90;;;;;;6256237;22;20194;-86
2022/10/31 05:36:23;;;;;;;31.50;19.55;;;10.50;99.90;;;;;;6282736;22;20182;-87
2022/10/31 05:38:52;;;;;;;25.30;16.92;;;10.60;99.90;;;;;;6280877;22;20182;-90
2022/10/31 05:41:22;;;;;;;27.70;17.48;;;10.70;99.90;;;;;;6283730;22;20214;-89
2022/10/31 05:43:51;;;;;;;27.20;15.82;;;10.70;99.90;;;;;;6271723;22;20493;-89
2022/10/31 05:46:20;;;;;;;22.58;15.55;;;10.70;99.90;;;;;;6272397;22;20170;-87
2022/10/31 05:48:47;;;;;;;23.35;15.18;;;10.70;99.90;;;;;;6260335;22;20189;-85
2022/10/31 05:51:14;;;;;;;20.77;14.93;;;10.60;99.90;;;;;;6232016;22;20175;-87
2022/10/31 05:53:42;;;;;;;28.45;17.50;;;10.70;99.90;;;;;;6262644;22;20225;-87
2022/10/31 05:56:10;;;;;;;19.75;16.10;;;10.70;99.90;;;;;;6286588;22;20187;-86
2022/10/31 05:58:37;;;;;;;23.33;16.42;;;10.80;99.90;;;;;;6255611;22;20525;-85
2022/10/31 06:01:05;;;;;;;22.73;14.98;;;10.80;99.90;;;;;;6229637;22;20281;-85
2022/10/31 06:03:32;;;;;;;25.08;15.27;;;10.90;99.90;;;;;;6253856;22;20182;-85
2022/10/31 06:06:00;;;;;;;25.60;15.20;;;10.90;99.90;;;;;;6254548;22;20422;-88
2022/10/31 06:08:29;;;;;;;23.20;14.73;;;11.00;99.90;;;;;;6293622;22;20231;-89
2022/10/31 06:10:58;;;;;;;18.33;14.48;;;11.00;99.90;;;;;;6264332;22;20182;-87
2022/10/31 06:13:27;;;;;;;24.30;13.70;;;11.10;99.90;;;;;;6252215;22;20198;-84
2022/10/31 06:15:55;;;;;;;19.88;14.90;;;11.10;99.90;;;;;;6253177;22;20415;-86
2022/10/31 06:18:21;;;;;;;28.15;14.90;;;11.10;99.90;;;;;;6279022;22;20171;-84
2022/10/31 06:20:49;;;;;;;26.23;13.95;;;11.10;99.90;;;;;;6277995;22;20209;-85
2022/10/31 06:23:16;;;;;;;21.70;13.75;;;11.10;99.90;;;;;;6279257;22;20268;-85
2022/10/31 06:25:48;;;;;;;17.48;14.50;;;11.20;99.90;;;;;;6277323;22;20496;-85
2022/10/31 06:28:18;;;;;;;21.23;12.90;;;11.30;99.90;;;;;;6279149;22;20175;-85
2022/10/31 06:30:46;;;;;;;18.85;14.20;;;11.40;99.90;;;;;;6252729;22;20262;-86
2022/10/31 06:33:13;;;;;;;15.98;13.55;;;11.50;99.90;;;;;;6254548;22;20198;-86
2022/10/31 06:35:46;;;;;;;23.58;15.63;;;11.50;99.90;;;;;;6282068;22;20251;-85
2022/10/31 06:38:18;;;;;;;22.05;11.43;;;11.60;99.90;;;;;;6284180;22;20505;-88
2022/10/31 06:40:45;;;;;;;17.73;12.10;;;11.70;99.90;;;;;;6258508;22;20225;-85
2022/10/31 06:43:14;;;;;;;21.55;13.63;;;11.80;99.90;;;;;;6258880;22;20234;-84
2022/10/31 06:45:42;;;;;;;18.70;12.93;;;12.20;99.90;;;;;;6257826;22;20186;-84
2022/10/31 06:48:12;;;;;;;21.33;13.25;;;12.10;99.90;;;;;;6283634;22;20214;-86
2022/10/31 06:50:43;;;;;;;19.42;13.20;;;12.20;99.90;;;;;;6282742;22;20170;-85
2022/10/31 06:53:11;;;;;;;23.45;13.32;;;12.30;99.90;;;;;;6282801;22;20174;-84
2022/10/31 06:59:26;;;;;;;22.73;14.35;;;12.70;99.90;;;;;;6263031;22;20558;-86
2022/10/31 07:01:54;;;;;;;15.18;11.18;;;12.80;99.90;;;;;;6258517;22;20205;-85
2022/10/31 07:04:23;;;;;;;18.88;11.02;;;12.90;99.90;;;;;;6288595;22;20178;-86
2022/10/31 07:06:52;;;;;;;21.30;11.95;;;13.30;99.90;;;;;;6263181;22;20171;-85
2022/10/31 07:09:21;;;;;;;17.33;9.77;;;13.70;99.90;;;;;;6288594;22;20502;-87
2022/10/31 07:11:52;;;;;;;15.38;9.80;;;14.00;99.90;;;;;;6288941;22;20163;-86
2022/10/31 07:14:19;;;;;;;11.43;9.38;;;14.40;99.90;;;;;;6287069;22;20190;-85
2022/10/31 07:16:50;;;;;;;13.20;10.10;;;14.90;99.90;;;;;;6286895;22;20187;-88
2022/10/31 07:19:20;;;;;;;23.45;10.32;;;15.30;99.90;;;;;;6286310;22;20186;-85
2022/10/31 07:21:49;;;;;;;18.90;10.82;;;15.60;99.90;;;;;;6286652;22;20191;-87
2022/10/31 07:24:22;;;;;;;22.23;10.20;;;16.10;99.90;;;;;;6260571;22;20178;-87
2022/10/31 07:26:51;;;;;;;17.50;10.93;;;16.60;99.90;;;;;;6288694;22;20374;-85
2022/10/31 07:29:18;;;;;;;18.10;9.43;;;17.60;99.90;;;;;;6262267;22;20630;-86
2022/10/31 07:31:46;;;;;;;18.97;10.00;;;18.90;99.90;;;;;;6260498;22;20420;-86
2022/10/31 07:34:13;;;;;;;18.40;11.37;;;20.10;99.90;;;;;;6289280;22;20411;-85
2022/10/31 07:36:41;;;;;;;15.53;11.07;;;21.10;99.90;;;;;;6263983;22;20478;-86
2022/10/31 07:39:18;;;;;;;16.67;10.23;;;21.90;99.90;;;;;;6289630;22;20408;-85
2022/10/31 07:41:48;;;;;;;14.03;9.70;;;22.70;99.90;;;;;;6287743;22;20431;-87
2022/10/31 07:44:15;;;;;;;18.40;11.30;;;23.30;99.90;;;;;;6300039;22;20375;-87
2022/10/31 07:46:46;;;;;;;12.47;10.13;;;23.70;99.90;;;;;;6291271;22;20403;-86
2022/10/31 07:49:14;;;;;;;14.20;11.47;;;24.00;99.90;;;;;;6265572;22;20433;-85
2022/10/31 07:51:42;;;;;;;21.83;10.13;;;24.30;99.90;;;;;;6284756;22;20708;-87
2022/10/31 07:54:12;;;;;;;13.80;10.20;;;24.10;99.90;;;;;;6260286;22;20615;-86
2022/10/31 07:56:40;;;;;;;17.30;9.70;;;23.00;99.90;;;;;;6285296;22;20424;-86
2022/10/31 07:59:09;;;;;;;16.00;8.53;;;22.20;99.90;;;;;;6256850;22;20403;-85
2022/10/31 08:01:37;;;;;;;11.60;8.47;;;21.50;99.90;;;;;;6256611;22;20589;-85
2022/10/31 08:04:05;;;;;;;15.33;9.50;;;21.20;99.90;;;;;;6256189;22;20370;-87
2022/10/31 08:06:36;;;;;;;15.83;9.93;;;21.60;99.90;;;;;;6256068;22;20386;-84
2022/10/31 08:09:11;;;;;;;19.17;11.30;;;22.00;99.90;;;;;;6282255;22;20355;-85
2022/10/31 08:11:38;;;;;;;13.67;9.00;;;22.90;99.90;;;;;;6282853;22;20383;-85
2022/10/31 08:14:05;;;;;;;13.17;9.47;;;23.40;99.90;;;;;;6282775;22;20391;-85
2022/10/31 08:16:40;;;;;;;13.27;9.27;;;24.10;99.90;;;;;;6282993;22;20371;-85
2022/10/31 08:19:08;;;;;;;14.30;9.53;;;24.80;99.90;;;;;;6255367;22;20343;-85
2022/10/31 08:21:35;;;;;;;10.37;8.40;;;25.30;99.90;;;;;;6282405;22;20398;-87
2022/10/31 08:24:03;;;;;;;10.40;8.63;;;25.80;99.90;;;;;;6281176;22;20623;-86
2022/10/31 08:26:31;;;;;;;10.60;8.30;;;26.20;99.90;;;;;;6255658;22;20443;-86
2022/10/31 08:29:01;;;;;;;12.13;8.90;;;26.50;99.90;;;;;;6282073;22;20404;-84
2022/10/31 08:31:29;;;;;;;13.53;7.90;;;26.60;99.90;;;;;;6255776;22;20435;-86
2022/10/31 08:34:04;;;;;;;13.00;8.27;;;26.60;99.90;;;;;;6281773;22;20381;-86
2022/10/31 08:36:31;;;;;;;11.53;8.50;;;26.90;99.90;;;;;;6255971;22;20466;-86
2022/10/31 08:38:58;;;;;;;13.40;7.80;;;26.50;99.90;;;;;;6282300;22;20397;-86
2022/10/31 08:41:28;;;;;;;11.80;8.50;;;26.10;99.90;;;;;;6257514;22;20403;-87
2022/10/31 08:43:56;;;;;;;9.80;8.00;;;26.20;99.90;;;;;;6256992;22;20405;-84
2022/10/31 08:46:27;;;;;;;9.97;7.70;;;26.40;99.90;;;;;;6256636;22;20460;-84
2022/10/31 08:48:54;;;;;;;10.50;6.33;;;25.80;99.90;;;;;;6259111;22;20908;-85
2022/10/31 08:51:28;;;;;;;9.33;7.43;;;25.80;99.90;;;;;;6290829;22;20599;-85
2022/10/31 08:54:00;;;;;;;11.70;6.73;;;25.80;99.90;;;;;;6266990;22;20363;-85
2022/10/31 08:56:35;;;;;;;10.67;6.40;;;25.00;99.90;;;;;;6262353;22;20375;-83
2022/10/31 08:59:08;;;;;;;9.70;6.50;;;23.80;99.90;;;;;;6286075;22;20393;-85
2022/10/31 09:01:38;;;;;;;8.53;6.70;;;22.80;99.90;;;;;;6286332;22;20767;-85
2022/10/31 09:04:09;;;;;;;11.40;6.97;;;21.80;99.90;;;;;;6262667;22;20383;-84
2022/10/31 09:06:38;;;;;;;8.80;6.00;;;20.90;99.90;;;;;;6262972;22;20396;-84
2022/10/31 09:09:34;;;;;;;13.23;7.53;;;20.40;99.90;;;;;;6267141;22;20363;-83
2022/10/31 09:12:04;;;;;;;8.50;6.60;;;20.10;99.90;;;;;;6287304;22;20400;-84
2022/10/31 09:14:32;;;;;;;7.60;6.00;;;19.70;99.90;;;;;;6288391;22;20389;-89
2022/10/31 09:17:01;;;;;;;6.90;5.30;;;19.30;99.90;;;;;;6298921;22;20790;-86
2022/10/31 09:19:28;;;;;;;10.60;5.73;;;19.00;99.90;;;;;;6272577;22;20403;-86
2022/10/31 09:22:04;;;;;;;7.90;5.50;;;18.90;99.90;;;;;;6272540;22;20447;-84
2022/10/31 09:24:38;;;;;;;11.50;5.80;;;18.70;99.90;;;;;;6268157;22;20592;-83
2022/10/31 09:27:08;;;;;;;7.17;5.53;;;18.70;99.90;;;;;;6261884;22;20429;-86
2022/10/31 09:29:37;;;;;;;8.90;5.27;;;18.80;99.90;;;;;;6260302;22;20416;-84
2022/10/31 09:32:05;;;;;;;10.00;4.60;;;18.80;99.90;;;;;;6258233;22;20419;-84
2022/10/31 09:34:36;;;;;;;6.20;4.60;;;18.70;99.90;;;;;;6257935;22;20550;-84
2022/10/31 09:37:05;;;;;;;6.57;4.47;;;18.70;99.90;;;;;;6283439;22;20448;-83
2022/10/31 09:39:38;;;;;;;9.10;4.90;;;18.60;99.90;;;;;;6284635;22;20372;-85
2022/10/31 09:42:42;;;;;;;6.67;4.60;;;18.60;99.90;;;;;;6257807;22;20801;-87
2022/10/31 09:45:49;;;;;;;6.83;3.77;;;18.60;99.90;;;;;;6284752;22;20368;-83
2022/10/31 09:48:24;;;;;;;7.90;5.90;;;18.70;99.90;;;;;;6284075;22;20968;-85
2022/10/31 09:51:10;;;;;;;8.70;6.20;;;18.90;99.90;;;;;;6284804;22;20657;-82
2022/10/31 09:54:12;;;;;;;9.17;5.00;;;19.00;99.90;;;;;;6258790;22;20396;-84
2022/10/31 09:56:39;;;;;;;11.53;5.77;;;19.10;99.90;;;;;;6257604;22;20438;-83
2022/10/31 09:59:19;;;;;;;8.87;5.83;;;19.00;99.90;;;;;;6258066;22;20747;-84
2022/10/31 10:02:13;;;;;;;7.27;4.50;;;19.00;99.90;;;;;;6283928;22;20439;-83
2022/10/31 10:05:04;;;;;;;12.93;4.97;;;19.10;99.90;;;;;;6283663;22;20622;-83
2022/10/31 10:08:07;;;;;;;7.17;4.30;;;19.00;99.90;;;;;;6282686;22;20521;-85
2022/10/31 10:10:49;;;;;;;4.80;4.30;;;19.10;99.90;;;;;;6285051;22;20354;-86
2022/10/31 10:13:29;;;;;;;5.57;4.53;;;19.10;99.90;;;;;;6282528;22;20442;-85
2022/10/31 10:16:20;;;;;;;8.63;4.97;;;19.10;99.90;;;;;;6281988;22;20470;-84
2022/10/31 10:19:12;;;;;;;7.93;4.97;;;19.10;99.90;;;;;;6282158;22;20554;-88
2022/10/31 10:22:04;;;;;;;11.30;5.00;;;18.90;99.90;;;;;;6282809;22;20375;-86
2022/10/31 10:25:04;;;;;;;5.30;4.60;;;19.10;99.90;;;;;;6284410;22;20368;-85
2022/10/31 10:27:52;;;;;;;13.03;5.47;;;19.00;99.90;;;;;;6257198;22;20437;-86
2022/10/31 10:30:43;;;;;;;7.83;5.40;;;18.90;99.90;;;;;;6258714;22;20416;-86
2022/10/31 10:33:31;;;;;;;10.90;5.23;;;19.00;99.90;;;;;;6204326;23;20373;-87
2022/10/31 10:36:22;;;;;;;7.90;5.37;;;18.90;99.90;;;;;;6231620;23;20459;-86
2022/10/31 10:38:55;;;;;;;6.67;5.40;;;19.00;99.90;;;;;;6256619;23;20431;-85
2022/10/31 10:41:31;;;;;;;13.83;6.97;;;19.10;99.90;;;;;;6258167;23;20373;-86
2022/10/31 10:44:05;;;;;;;6.00;4.90;;;19.20;99.90;;;;;;6209219;23;20421;-85
2022/10/31 10:50:06;;;;;;;6.90;5.40;;;19.30;99.90;;;;;;6253134;23;20365;-85
2022/10/31 10:53:21;;;;;;;8.10;5.80;;;19.40;99.90;;;;;;6252435;23;20706;-85
2022/10/31 10:55:59;;;;;;;15.27;7.17;;;19.40;99.90;;;;;;6208795;23;20409;-86
2022/10/31 10:58:29;;;;;;;13.70;6.47;;;19.40;99.90;;;;;;6253395;23;20401;-86
2022/10/31 11:00:59;;;;;;;6.60;5.67;;;19.60;99.90;;;;;;6254823;23;20376;-86
2022/10/31 11:03:27;;;;;;;8.87;5.70;;;19.50;99.90;;;;;;6227754;23;20741;-87
2022/10/31 11:05:58;;;;;;;7.10;5.43;;;19.80;99.90;;;;;;6253732;23;20435;-87
2022/10/31 11:08:29;;;;;;;5.93;5.30;;;19.90;99.90;;;;;;6252543;23;20396;-86
2022/10/31 11:11:17;;;;;;;8.03;5.00;;;19.90;99.90;;;;;;6252637;23;20930;-86
2022/10/31 11:13:48;;;;;;;4.87;4.27;;;19.90;99.90;;;;;;6251369;23;20407;-88
2022/10/31 11:16:38;;;;;;;8.00;5.53;;;19.90;99.90;;;;;;6225686;23;20411;-87
2022/10/31 11:19:11;;;;;;;7.67;4.90;;;19.90;99.90;;;;;;6250535;23;20394;-87
2022/10/31 11:21:47;;;;;;;9.47;4.83;;;19.90;99.90;;;;;;6252859;23;20429;-86
2022/10/31 11:24:27;;;;;;;7.23;4.70;;;20.00;99.90;;;;;;6253739;23;20409;-87
2022/10/31 11:27:29;;;;;;;10.83;5.13;;;19.90;99.90;;;;;;6258607;23;20376;-90
2022/10/31 11:30:05;;;;;;;8.57;4.50;;;19.90;99.90;;;;;;6257762;23;20422;-88
2022/10/31 11:32:52;;;;;;;7.50;5.20;;;19.90;99.90;;;;;;6258950;22;20427;-88
2022/10/31 11:35:23;;;;;;;9.73;5.27;;;19.90;99.90;;;;;;6238687;22;20355;-88
2022/10/31 11:37:53;;;;;;;10.60;5.47;;;19.80;99.90;;;;;;6262224;22;20358;-87
2022/10/31 11:40:25;;;;;;;10.20;4.33;;;19.80;99.90;;;;;;6287594;22;20478;-87
2022/10/31 11:42:59;;;;;;;6.53;5.20;;;19.90;99.90;;;;;;6272239;22;20420;-86
2022/10/31 11:45:36;;;;;;;7.47;4.73;;;19.90;99.90;;;;;;6301396;22;20347;-87
2022/10/31 11:48:24;;;;;;;9.43;5.10;;;19.80;99.90;;;;;;6274929;22;20374;-89
2022/10/31 11:50:57;;;;;;;8.43;4.83;;;19.80;99.90;;;;;;6263892;22;20371;-88
2022/10/31 11:53:32;;;;;;;6.83;4.10;;;19.90;99.90;;;;;;6263184;22;20347;-87
2022/10/31 11:56:18;;;;;;;15.53;6.10;;;19.80;99.90;;;;;;6289667;22;20411;-89
2022/10/31 11:59:01;;;;;;;8.07;4.60;;;19.90;99.90;;;;;;6262441;22;20442;-90
2022/10/31 12:01:32;;;;;;;8.53;6.00;;;19.90;99.90;;;;;;6265196;22;20372;-89
2022/10/31 12:04:12;;;;;;;6.90;4.47;;;20.00;99.90;;;;;;6245433;22;20432;-89
2022/10/31 12:06:45;;;;;;;12.73;5.10;;;20.00;99.90;;;;;;6265551;22;20390;-88
2022/10/31 12:09:19;;;;;;;9.23;5.80;;;20.00;99.90;;;;;;6266663;22;20383;-87
2022/10/31 12:12:28;;;;;;;7.00;5.40;;;20.00;99.90;;;;;;6269074;22;20383;-88
2022/10/31 12:15:30;;;;;;;8.43;5.53;;;19.90;99.90;;;;;;6270723;22;20352;-89
2022/10/31 12:18:24;;;;;;;9.33;4.60;;;19.90;99.90;;;;;;6259940;22;20523;-90
2022/10/31 12:21:29;;;;;;;7.00;4.63;;;19.80;99.90;;;;;;6270705;22;20428;-90
2022/10/31 12:24:07;;;;;;;12.30;5.10;;;19.80;99.90;;;;;;6266740;22;20432;-90
2022/10/31 12:26:50;;;;;;;6.13;5.03;;;19.80;99.90;;;;;;6268255;22;20375;-88
2022/10/31 12:29:39;;;;;;;9.00;4.53;;;19.80;99.90;;;;;;6298999;22;20355;-89
2022/10/31 12:32:59;;;;;;;8.67;5.20;;;19.90;99.90;;;;;;6295656;22;20408;-88
2022/10/31 12:35:54;;;;;;;16.70;4.03;;;19.90;99.90;;;;;;6220803;22;20423;-91
2022/10/31 12:38:55;;;;;;;7.37;5.00;;;19.90;99.90;;;;;;6272895;22;20378;-89
2022/10/31 12:41:53;;;;;;;6.80;4.97;;;19.90;99.90;;;;;;6296273;22;20385;-89
2022/10/31 12:44:27;;;;;;;12.20;4.70;;;19.90;99.90;;;;;;6295708;22;20416;-90
2022/10/31 12:53:18;;;;;;;9.23;5.30;;;20.10;99.90;;;;;;6300195;22;20367;-88
2022/10/31 12:56:29;;;;;;;13.60;5.93;;;20.00;99.90;;;;;;6266916;22;20403;-90
2022/10/31 12:59:26;;;;;;;8.63;6.20;;;19.80;99.90;;;;;;6294551;22;20404;-89
2022/10/31 13:02:14;;;;;;;9.87;5.20;;;19.70;99.90;;;;;;6292868;22;20466;-89
2022/10/31 13:05:05;;;;;;;13.50;5.57;;;19.80;99.90;;;;;;6298567;22;20442;-88
2022/10/31 13:07:48;;;;;;;7.47;5.67;;;19.80;99.90;;;;;;6273205;22;20359;-90
2022/10/31 13:10:31;;;;;;;9.70;6.23;;;20.20;99.90;;;;;;6273375;22;20367;-89
2022/10/31 13:13:17;;;;;;;12.30;6.10;;;20.20;99.90;;;;;;6296936;22;20408;-91
2022/10/31 13:16:00;;;;;;;8.63;6.10;;;20.30;99.90;;;;;;6292879;22;20392;-90
2022/10/31 13:18:55;;;;;;;6.60;5.00;;;20.20;99.90;;;;;;6259499;22;21724;-89
2022/10/31 13:21:31;;;;;;;8.73;5.27;;;20.20;99.90;;;;;;6271078;22;20449;-91
2022/10/31 13:26:43;;;;;;;5.70;5.10;;;20.10;99.90;;;;;;6278426;22;20397;-90
2022/10/31 13:29:42;;;;;;;7.93;6.03;;;20.10;99.90;;;;;;6260295;22;20431;-87
2022/10/31 13:32:10;;;;;;;10.00;5.77;;;20.10;99.90;;;;;;6271141;22;20466;-90
2022/10/31 13:34:47;;;;;;;8.20;5.40;;;20.10;99.90;;;;;;6257032;22;20466;-89
2022/10/31 13:37:34;;;;;;;8.97;7.20;;;20.10;99.90;;;;;;6269872;23;20352;-89
2022/10/31 13:40:15;;;;;;;7.17;5.40;;;20.20;99.90;;;;;;6244354;23;20448;-87